sensor_id;sensor_type;location;lat;lon;timestamp;temperature;humidity
20081;DHT22;10200;49.232;9.222;2024-01-30T00:01:11;2.10;99.90
20081;DHT22;10200;49.232;9.222;2024-01-30T00:03:36;2.00;99.90
20081;DHT22;10200;49.232;9.222;2024-01-30T00:06:03;2.10;99.90
20081;DHT22;10200;49.232;9.222;2024-01-30T00:08:29;2.00;99.90
20081;DHT22;10200;49.232;9.222;2024-01-30T00:10:54;2.00;99.90
20081;DHT22;10200;49.232;9.222;2024-01-30T00:13:20;2.10;99.90
20081;DHT22;10200;49.232;9.222;2024-01-30T00:15:46;2.00;99.90
20081;DHT22;10200;49.232;9.222;2024-01-30T00:18:11;2.00;99.90
20081;DHT22;10200;49.232;9.222;2024-01-30T00:20:37;2.00;99.90
20081;DHT22;10200;49.232;9.222;2024-01-30T00:23:03;2.00;99.90
20081;DHT22;10200;49.232;9.222;2024-01-30T00:25:29;2.00;99.90
20081;DHT22;10200;49.232;9.222;2024-01-30T00:27:54;2.00;99.90
20081;DHT22;10200;49.232;9.222;2024-01-30T00:30:20;2.00;99.90
20081;DHT22;10200;49.232;9.222;2024-01-30T00:32:46;2.10;99.90
20081;DHT22;10200;49.232;9.222;2024-01-30T00:35:12;2.10;99.90
20081;DHT22;10200;49.232;9.222;2024-01-30T00:37:37;2.00;99.90
20081;DHT22;10200;49.232;9.222;2024-01-30T00:40:03;2.00;99.90
20081;DHT22;10200;49.232;9.222;2024-01-30T00:42:29;2.00;99.90
20081;DHT22;10200;49.232;9.222;2024-01-30T00:44:55;2.00;99.90
20081;DHT22;10200;49.232;9.222;2024-01-30T00:47:20;2.00;99.90
20081;DHT22;10200;49.232;9.222;2024-01-30T00:49:46;2.00;99.90
20081;DHT22;10200;49.232;9.222;2024-01-30T00:52:11;2.00;99.90
20081;DHT22;10200;49.232;9.222;2024-01-30T00:54:37;2.00;99.90
20081;DHT22;10200;49.232;9.222;2024-01-30T00:57:03;2.00;99.90
20081;DHT22;10200;49.232;9.222;2024-01-30T00:59:28;2.00;99.90
20081;DHT22;10200;49.232;9.222;2024-01-30T01:01:54;2.00;99.90
20081;DHT22;10200;49.232;9.222;2024-01-30T01:04:20;2.00;99.90
20081;DHT22;10200;49.232;9.222;2024-01-30T01:06:47;1.90;99.90
20081;DHT22;10200;49.232;9.222;2024-01-30T01:09:12;1.90;99.90
20081;DHT22;10200;49.232;9.222;2024-01-30T01:11:38;1.90;99.90
20081;DHT22;10200;49.232;9.222;2024-01-30T01:14:04;1.90;99.90
20081;DHT22;10200;49.232;9.222;2024-01-30T01:16:30;1.90;99.90
20081;DHT22;10200;49.232;9.222;2024-01-30T01:18:55;1.90;99.90
20081;DHT22;10200;49.232;9.222;2024-01-30T01:21:21;1.90;99.90
20081;DHT22;10200;49.232;9.222;2024-01-30T01:23:47;1.90;99.90
20081;DHT22;10200;49.232;9.222;2024-01-30T01:26:13;1.90;99.90
20081;DHT22;10200;49.232;9.222;2024-01-30T01:28:40;1.90;99.90
20081;DHT22;10200;49.232;9.222;2024-01-30T01:31:06;1.90;99.90
20081;DHT22;10200;49.232;9.222;2024-01-30T01:33:32;1.80;99.90
20081;DHT22;10200;49.232;9.222;2024-01-30T01:35:59;1.80;99.90
20081;DHT22;10200;49.232;9.222;2024-01-30T01:38:25;1.80;99.90
20081;DHT22;10200;49.232;9.222;2024-01-30T01:40:51;1.80;99.90
20081;DHT22;10200;49.232;9.222;2024-01-30T01:43:16;1.70;99.90
20081;DHT22;10200;49.232;9.222;2024-01-30T01:45:42;1.70;99.90
20081;DHT22;10200;49.232;9.222;2024-01-30T01:48:08;1.70;99.90
20081;DHT22;10200;49.232;9.222;2024-01-30T01:50:34;1.70;99.90
20081;DHT22;10200;49.232;9.222;2024-01-30T01:53:01;1.70;99.90
20081;DHT22;10200;49.232;9.222;2024-01-30T01:55:29;1.60;99.90
20081;DHT22;10200;49.232;9.222;2024-01-30T01:57:55;1.60;99.90
20081;DHT22;10200;49.232;9.222;2024-01-30T02:00:21;1.60;99.90
20081;DHT22;10200;49.232;9.222;2024-01-30T02:02:47;1.60;99.90
20081;DHT22;10200;49.232;9.222;2024-01-30T02:05:14;1.60;99.90
20081;DHT22;10200;49.232;9.222;2024-01-30T02:07:41;1.60;99.90
20081;DHT22;10200;49.232;9.222;2024-01-30T02:10:08;1.60;99.90
20081;DHT22;10200;49.232;9.222;2024-01-30T02:12:35;1.60;99.90
20081;DHT22;10200;49.232;9.222;2024-01-30T02:15:00;1.70;99.90
20081;DHT22;10200;49.232;9.222;2024-01-30T02:17:26;1.60;99.90
20081;DHT22;10200;49.232;9.222;2024-01-30T02:19:52;1.60;99.90
20081;DHT22;10200;49.232;9.222;2024-01-30T02:22:18;1.60;99.90
20081;DHT22;10200;49.232;9.222;2024-01-30T02:24:44;1.60;99.90
20081;DHT22;10200;49.232;9.222;2024-01-30T02:27:10;1.60;99.90
20081;DHT22;10200;49.232;9.222;2024-01-30T02:29:35;1.50;99.90
20081;DHT22;10200;49.232;9.222;2024-01-30T02:32:01;1.60;99.90
20081;DHT22;10200;49.232;9.222;2024-01-30T02:34:27;1.60;99.90
20081;DHT22;10200;49.232;9.222;2024-01-30T02:36:53;1.60;99.90
20081;DHT22;10200;49.232;9.222;2024-01-30T02:39:18;1.60;99.90
20081;DHT22;10200;49.232;9.222;2024-01-30T02:41:44;1.50;99.90
20081;DHT22;10200;49.232;9.222;2024-01-30T02:44:09;1.50;99.90
20081;DHT22;10200;49.232;9.222;2024-01-30T02:46:35;1.50;99.90
20081;DHT22;10200;49.232;9.222;2024-01-30T02:49:01;1.50;99.90
20081;DHT22;10200;49.232;9.222;2024-01-30T02:51:26;1.50;99.90
20081;DHT22;10200;49.232;9.222;2024-01-30T02:53:52;1.50;99.90
20081;DHT22;10200;49.232;9.222;2024-01-30T02:56:18;1.50;99.90
20081;DHT22;10200;49.232;9.222;2024-01-30T02:58:43;1.50;99.90
20081;DHT22;10200;49.232;9.222;2024-01-30T03:01:09;1.40;99.90
20081;DHT22;10200;49.232;9.222;2024-01-30T03:03:34;1.40;99.90
20081;DHT22;10200;49.232;9.222;2024-01-30T03:06:01;1.40;99.90
20081;DHT22;10200;49.232;9.222;2024-01-30T03:08:27;1.40;99.90
20081;DHT22;10200;49.232;9.222;2024-01-30T03:10:53;1.40;99.90
20081;DHT22;10200;49.232;9.222;2024-01-30T03:13:18;1.40;99.90
20081;DHT22;10200;49.232;9.222;2024-01-30T03:15:44;1.40;99.90
20081;DHT22;10200;49.232;9.222;2024-01-30T03:18:10;1.40;99.90
20081;DHT22;10200;49.232;9.222;2024-01-30T03:20:35;1.40;99.90
20081;DHT22;10200;49.232;9.222;2024-01-30T03:23:01;1.40;99.90
20081;DHT22;10200;49.232;9.222;2024-01-30T03:25:27;1.30;99.90
20081;DHT22;10200;49.232;9.222;2024-01-30T03:27:52;1.30;99.90
20081;DHT22;10200;49.232;9.222;2024-01-30T03:30:18;1.30;99.90
20081;DHT22;10200;49.232;9.222;2024-01-30T03:32:44;1.30;99.90
20081;DHT22;10200;49.232;9.222;2024-01-30T03:35:09;1.30;99.90
20081;DHT22;10200;49.232;9.222;2024-01-30T03:37:35;1.30;99.90
20081;DHT22;10200;49.232;9.222;2024-01-30T03:40:01;1.30;99.90
20081;DHT22;10200;49.232;9.222;2024-01-30T03:42:28;1.30;99.90
20081;DHT22;10200;49.232;9.222;2024-01-30T03:44:53;1.30;99.90
20081;DHT22;10200;49.232;9.222;2024-01-30T03:47:20;1.30;99.90
20081;DHT22;10200;49.232;9.222;2024-01-30T03:49:46;1.30;99.90
20081;DHT22;10200;49.232;9.222;2024-01-30T03:52:12;1.30;99.90
20081;DHT22;10200;49.232;9.222;2024-01-30T03:54:37;1.20;99.90
20081;DHT22;10200;49.232;9.222;2024-01-30T03:57:03;1.20;99.90
20081;DHT22;10200;49.232;9.222;2024-01-30T03:59:29;1.20;99.90
20081;DHT22;10200;49.232;9.222;2024-01-30T04:01:55;1.20;99.90
20081;DHT22;10200;49.232;9.222;2024-01-30T04:04:20;1.30;99.90
20081;DHT22;10200;49.232;9.222;2024-01-30T04:06:46;1.30;99.90
20081;DHT22;10200;49.232;9.222;2024-01-30T04:09:13;1.20;99.90
20081;DHT22;10200;49.232;9.222;2024-01-30T04:11:39;1.20;99.90
20081;DHT22;10200;49.232;9.222;2024-01-30T04:14:05;1.20;99.90
20081;DHT22;10200;49.232;9.222;2024-01-30T04:16:31;1.20;99.90
20081;DHT22;10200;49.232;9.222;2024-01-30T04:18:57;1.20;99.90
20081;DHT22;10200;49.232;9.222;2024-01-30T04:21:23;1.20;99.90
20081;DHT22;10200;49.232;9.222;2024-01-30T04:23:50;1.20;99.90
20081;DHT22;10200;49.232;9.222;2024-01-30T04:26:16;1.20;99.90
20081;DHT22;10200;49.232;9.222;2024-01-30T04:28:42;1.20;99.90
20081;DHT22;10200;49.232;9.222;2024-01-30T04:31:07;1.20;99.90
20081;DHT22;10200;49.232;9.222;2024-01-30T04:33:33;1.20;99.90
20081;DHT22;10200;49.232;9.222;2024-01-30T04:35:59;1.20;99.90
20081;DHT22;10200;49.232;9.222;2024-01-30T04:38:25;1.20;99.90
20081;DHT22;10200;49.232;9.222;2024-01-30T04:40:50;1.20;99.90
20081;DHT22;10200;49.232;9.222;2024-01-30T04:43:16;1.20;99.90
20081;DHT22;10200;49.232;9.222;2024-01-30T04:45:41;1.10;99.90
20081;DHT22;10200;49.232;9.222;2024-01-30T04:48:07;1.20;99.90
20081;DHT22;10200;49.232;9.222;2024-01-30T04:50:33;1.10;99.90
20081;DHT22;10200;49.232;9.222;2024-01-30T04:52:58;1.10;99.90
20081;DHT22;10200;49.232;9.222;2024-01-30T04:55:24;1.10;99.90
20081;DHT22;10200;49.232;9.222;2024-01-30T04:57:50;1.10;99.90
20081;DHT22;10200;49.232;9.222;2024-01-30T05:00:15;1.10;99.90
20081;DHT22;10200;49.232;9.222;2024-01-30T05:02:42;1.10;99.90
20081;DHT22;10200;49.232;9.222;2024-01-30T05:05:08;1.10;99.90
20081;DHT22;10200;49.232;9.222;2024-01-30T05:07:34;1.10;99.90
20081;DHT22;10200;49.232;9.222;2024-01-30T05:10:00;1.10;99.90
20081;DHT22;10200;49.232;9.222;2024-01-30T05:12:25;1.10;99.90
20081;DHT22;10200;49.232;9.222;2024-01-30T05:14:51;1.10;99.90
20081;DHT22;10200;49.232;9.222;2024-01-30T05:17:17;1.10;99.90
20081;DHT22;10200;49.232;9.222;2024-01-30T05:19:43;1.10;99.90
20081;DHT22;10200;49.232;9.222;2024-01-30T05:22:09;1.10;99.90
20081;DHT22;10200;49.232;9.222;2024-01-30T05:24:36;1.10;99.90
20081;DHT22;10200;49.232;9.222;2024-01-30T05:27:02;1.10;99.90
20081;DHT22;10200;49.232;9.222;2024-01-30T05:29:28;1.10;99.90
20081;DHT22;10200;49.232;9.222;2024-01-30T05:31:54;1.00;99.90
20081;DHT22;10200;49.232;9.222;2024-01-30T05:34:19;1.00;99.90
20081;DHT22;10200;49.232;9.222;2024-01-30T05:36:45;1.00;99.90
20081;DHT22;10200;49.232;9.222;2024-01-30T05:39:10;1.00;99.90
20081;DHT22;10200;49.232;9.222;2024-01-30T05:41:36;1.00;99.90
20081;DHT22;10200;49.232;9.222;2024-01-30T05:44:02;1.00;99.90
20081;DHT22;10200;49.232;9.222;2024-01-30T05:46:27;1.00;99.90
20081;DHT22;10200;49.232;9.222;2024-01-30T05:48:53;1.00;99.90
20081;DHT22;10200;49.232;9.222;2024-01-30T05:51:19;1.00;99.90
20081;DHT22;10200;49.232;9.222;2024-01-30T05:53:44;1.10;99.90
20081;DHT22;10200;49.232;9.222;2024-01-30T05:56:10;1.00;99.90
20081;DHT22;10200;49.232;9.222;2024-01-30T05:58:35;1.00;99.90
20081;DHT22;10200;49.232;9.222;2024-01-30T06:01:06;0.90;99.90
20081;DHT22;10200;49.232;9.222;2024-01-30T06:03:32;0.90;99.90
20081;DHT22;10200;49.232;9.222;2024-01-30T06:05:57;0.90;99.90
20081;DHT22;10200;49.232;9.222;2024-01-30T06:08:23;1.00;99.90
20081;DHT22;10200;49.232;9.222;2024-01-30T06:10:48;1.00;99.90
20081;DHT22;10200;49.232;9.222;2024-01-30T06:13:14;1.00;99.90
20081;DHT22;10200;49.232;9.222;2024-01-30T06:15:40;0.90;99.90
20081;DHT22;10200;49.232;9.222;2024-01-30T06:18:06;0.90;99.90
20081;DHT22;10200;49.232;9.222;2024-01-30T06:20:31;0.90;99.90
20081;DHT22;10200;49.232;9.222;2024-01-30T06:22:57;0.90;99.90
20081;DHT22;10200;49.232;9.222;2024-01-30T06:25:22;0.90;99.90
20081;DHT22;10200;49.232;9.222;2024-01-30T06:27:48;0.90;99.90
20081;DHT22;10200;49.232;9.222;2024-01-30T06:30:14;0.80;99.90
20081;DHT22;10200;49.232;9.222;2024-01-30T06:32:39;0.90;99.90
20081;DHT22;10200;49.232;9.222;2024-01-30T06:35:05;0.90;99.90
20081;DHT22;10200;49.232;9.222;2024-01-30T06:37:31;0.90;99.90
20081;DHT22;10200;49.232;9.222;2024-01-30T06:39:57;0.90;99.90
20081;DHT22;10200;49.232;9.222;2024-01-30T06:42:22;0.90;99.90
20081;DHT22;10200;49.232;9.222;2024-01-30T06:44:48;0.90;99.90
20081;DHT22;10200;49.232;9.222;2024-01-30T06:47:13;0.80;99.90
20081;DHT22;10200;49.232;9.222;2024-01-30T06:49:39;0.80;99.90
20081;DHT22;10200;49.232;9.222;2024-01-30T06:52:07;0.80;99.90
20081;DHT22;10200;49.232;9.222;2024-01-30T06:54:33;0.80;99.90
20081;DHT22;10200;49.232;9.222;2024-01-30T06:56:59;0.80;99.90
20081;DHT22;10200;49.232;9.222;2024-01-30T06:59:25;0.80;99.90
20081;DHT22;10200;49.232;9.222;2024-01-30T07:01:51;0.80;99.90
20081;DHT22;10200;49.232;9.222;2024-01-30T07:04:17;0.80;99.90
20081;DHT22;10200;49.232;9.222;2024-01-30T07:06:43;0.80;99.90
20081;DHT22;10200;49.232;9.222;2024-01-30T07:09:09;0.80;99.90
20081;DHT22;10200;49.232;9.222;2024-01-30T07:11:35;0.80;99.90
20081;DHT22;10200;49.232;9.222;2024-01-30T07:14:00;0.90;99.90
20081;DHT22;10200;49.232;9.222;2024-01-30T07:16:29;0.90;99.90
20081;DHT22;10200;49.232;9.222;2024-01-30T07:18:54;0.90;99.90
20081;DHT22;10200;49.232;9.222;2024-01-30T07:21:20;1.00;99.90
20081;DHT22;10200;49.232;9.222;2024-01-30T07:23:47;1.00;99.90
20081;DHT22;10200;49.232;9.222;2024-01-30T07:26:12;1.10;99.90
20081;DHT22;10200;49.232;9.222;2024-01-30T07:28:38;1.10;99.90
20081;DHT22;10200;49.232;9.222;2024-01-30T07:31:04;1.10;99.90
20081;DHT22;10200;49.232;9.222;2024-01-30T07:33:29;1.10;99.90
20081;DHT22;10200;49.232;9.222;2024-01-30T07:35:55;1.20;99.90
20081;DHT22;10200;49.232;9.222;2024-01-30T07:38:20;1.20;99.90
20081;DHT22;10200;49.232;9.222;2024-01-30T07:40:46;1.30;99.90
20081;DHT22;10200;49.232;9.222;2024-01-30T07:43:12;1.40;99.90
20081;DHT22;10200;49.232;9.222;2024-01-30T07:45:37;1.50;99.90
20081;DHT22;10200;49.232;9.222;2024-01-30T07:48:05;1.50;99.90
20081;DHT22;10200;49.232;9.222;2024-01-30T07:50:31;1.60;99.90
20081;DHT22;10200;49.232;9.222;2024-01-30T07:52:57;1.60;99.90
20081;DHT22;10200;49.232;9.222;2024-01-30T07:55:23;1.70;99.90
20081;DHT22;10200;49.232;9.222;2024-01-30T07:57:55;1.80;99.90
20081;DHT22;10200;49.232;9.222;2024-01-30T08:00:21;1.80;99.90
20081;DHT22;10200;49.232;9.222;2024-01-30T08:02:47;1.90;99.90
20081;DHT22;10200;49.232;9.222;2024-01-30T08:05:13;2.00;99.90
20081;DHT22;10200;49.232;9.222;2024-01-30T08:07:41;2.00;99.90
20081;DHT22;10200;49.232;9.222;2024-01-30T08:10:07;2.20;99.90
20081;DHT22;10200;49.232;9.222;2024-01-30T08:12:33;2.30;99.90
20081;DHT22;10200;49.232;9.222;2024-01-30T08:14:59;2.60;99.90
20081;DHT22;10200;49.232;9.222;2024-01-30T08:17:24;3.00;99.90
20081;DHT22;10200;49.232;9.222;2024-01-30T08:19:50;3.30;99.90
20081;DHT22;10200;49.232;9.222;2024-01-30T08:22:15;3.60;99.90
20081;DHT22;10200;49.232;9.222;2024-01-30T08:24:41;3.80;99.90
20081;DHT22;10200;49.232;9.222;2024-01-30T08:27:07;4.10;99.90
20081;DHT22;10200;49.232;9.222;2024-01-30T08:29:35;4.20;99.90
20081;DHT22;10200;49.232;9.222;2024-01-30T08:32:01;4.30;99.90
20081;DHT22;10200;49.232;9.222;2024-01-30T08:34:26;4.30;99.90
20081;DHT22;10200;49.232;9.222;2024-01-30T08:36:52;4.50;99.90
20081;DHT22;10200;49.232;9.222;2024-01-30T08:39:18;4.80;99.90
20081;DHT22;10200;49.232;9.222;2024-01-30T08:41:44;5.00;99.90
20081;DHT22;10200;49.232;9.222;2024-01-30T08:44:10;5.20;99.90
20081;DHT22;10200;49.232;9.222;2024-01-30T08:46:36;5.40;99.90
20081;DHT22;10200;49.232;9.222;2024-01-30T08:49:02;5.40;99.90
20081;DHT22;10200;49.232;9.222;2024-01-30T08:51:29;5.50;99.90
20081;DHT22;10200;49.232;9.222;2024-01-30T08:53:55;5.50;99.90
20081;DHT22;10200;49.232;9.222;2024-01-30T08:56:21;5.40;99.90
20081;DHT22;10200;49.232;9.222;2024-01-30T08:58:46;5.50;99.90
20081;DHT22;10200;49.232;9.222;2024-01-30T09:01:12;5.30;99.90
20081;DHT22;10200;49.232;9.222;2024-01-30T09:03:38;5.20;99.90
20081;DHT22;10200;49.232;9.222;2024-01-30T09:06:09;5.20;99.90
20081;DHT22;10200;49.232;9.222;2024-01-30T09:08:34;5.10;99.90
20081;DHT22;10200;49.232;9.222;2024-01-30T09:11:00;5.10;99.90
20081;DHT22;10200;49.232;9.222;2024-01-30T09:13:26;5.00;99.90
20081;DHT22;10200;49.232;9.222;2024-01-30T09:15:51;4.90;99.90
20081;DHT22;10200;49.232;9.222;2024-01-30T09:18:18;4.90;99.90
20081;DHT22;10200;49.232;9.222;2024-01-30T09:20:44;4.90;99.90
20081;DHT22;10200;49.232;9.222;2024-01-30T09:23:12;4.90;99.90
20081;DHT22;10200;49.232;9.222;2024-01-30T09:25:38;5.00;99.90
20081;DHT22;10200;49.232;9.222;2024-01-30T09:28:04;5.00;99.90
20081;DHT22;10200;49.232;9.222;2024-01-30T09:30:30;5.10;99.90
20081;DHT22;10200;49.232;9.222;2024-01-30T09:32:55;5.20;99.90
20081;DHT22;10200;49.232;9.222;2024-01-30T09:35:21;5.30;99.90
20081;DHT22;10200;49.232;9.222;2024-01-30T09:37:46;5.30;99.90
20081;DHT22;10200;49.232;9.222;2024-01-30T09:40:13;5.40;99.90
20081;DHT22;10200;49.232;9.222;2024-01-30T09:42:39;5.30;99.90
20081;DHT22;10200;49.232;9.222;2024-01-30T09:45:05;5.30;99.90
20081;DHT22;10200;49.232;9.222;2024-01-30T09:47:32;5.30;99.90
20081;DHT22;10200;49.232;9.222;2024-01-30T09:50:01;5.40;99.90
20081;DHT22;10200;49.232;9.222;2024-01-30T09:52:28;5.30;99.90
20081;DHT22;10200;49.232;9.222;2024-01-30T09:54:53;5.30;99.90
20081;DHT22;10200;49.232;9.222;2024-01-30T09:57:19;5.20;99.90
20081;DHT22;10200;49.232;9.222;2024-01-30T09:59:46;5.20;99.90
20081;DHT22;10200;49.232;9.222;2024-01-30T10:02:12;5.20;99.90
20081;DHT22;10200;49.232;9.222;2024-01-30T10:04:38;5.20;99.90
20081;DHT22;10200;49.232;9.222;2024-01-30T10:07:03;5.10;99.90
20081;DHT22;10200;49.232;9.222;2024-01-30T10:09:32;5.20;99.90
20081;DHT22;10200;49.232;9.222;2024-01-30T10:11:59;5.20;99.90
20081;DHT22;10200;49.232;9.222;2024-01-30T10:14:24;5.30;99.90
20081;DHT22;10200;49.232;9.222;2024-01-30T10:16:50;5.40;99.90
20081;DHT22;10200;49.232;9.222;2024-01-30T10:19:16;5.40;99.90
20081;DHT22;10200;49.232;9.222;2024-01-30T10:21:42;5.30;99.90
20081;DHT22;10200;49.232;9.222;2024-01-30T10:24:07;5.40;99.90
20081;DHT22;10200;49.232;9.222;2024-01-30T10:26:33;5.30;99.90
20081;DHT22;10200;49.232;9.222;2024-01-30T10:28:59;5.30;99.90
20081;DHT22;10200;49.232;9.222;2024-01-30T10:31:25;5.40;99.90
20081;DHT22;10200;49.232;9.222;2024-01-30T10:33:51;5.30;99.90
20081;DHT22;10200;49.232;9.222;2024-01-30T10:36:17;5.30;99.90
20081;DHT22;10200;49.232;9.222;2024-01-30T10:38:43;5.40;99.90
20081;DHT22;10200;49.232;9.222;2024-01-30T10:41:13;5.40;99.90
20081;DHT22;10200;49.232;9.222;2024-01-30T10:43:48;5.50;99.90
20081;DHT22;10200;49.232;9.222;2024-01-30T10:46:19;5.50;99.90
20081;DHT22;10200;49.232;9.222;2024-01-30T10:48:51;5.60;99.90
20081;DHT22;10200;49.232;9.222;2024-01-30T10:51:19;5.60;99.90
20081;DHT22;10200;49.232;9.222;2024-01-30T10:53:46;5.60;99.90
20081;DHT22;10200;49.232;9.222;2024-01-30T10:56:12;5.70;99.90
20081;DHT22;10200;49.232;9.222;2024-01-30T10:58:39;5.70;99.90
20081;DHT22;10200;49.232;9.222;2024-01-30T11:01:05;5.70;99.90
20081;DHT22;10200;49.232;9.222;2024-01-30T11:03:32;5.80;99.90
20081;DHT22;10200;49.232;9.222;2024-01-30T11:06:00;5.90;99.90
20081;DHT22;10200;49.232;9.222;2024-01-30T11:08:26;5.90;99.90
20081;DHT22;10200;49.232;9.222;2024-01-30T11:10:58;5.80;99.90
20081;DHT22;10200;49.232;9.222;2024-01-30T11:13:30;5.80;99.90
20081;DHT22;10200;49.232;9.222;2024-01-30T11:16:01;5.80;99.90
20081;DHT22;10200;49.232;9.222;2024-01-30T11:18:30;5.80;99.90
20081;DHT22;10200;49.232;9.222;2024-01-30T11:21:04;5.80;99.90
20081;DHT22;10200;49.232;9.222;2024-01-30T11:23:30;5.90;99.90
20081;DHT22;10200;49.232;9.222;2024-01-30T11:25:58;5.90;99.90
20081;DHT22;10200;49.232;9.222;2024-01-30T11:28:24;5.90;99.90
20081;DHT22;10200;49.232;9.222;2024-01-30T11:30:49;5.90;99.90
20081;DHT22;10200;49.232;9.222;2024-01-30T11:33:29;6.00;99.90
20081;DHT22;10200;49.232;9.222;2024-01-30T11:35:58;6.10;99.90
20081;DHT22;10200;49.232;9.222;2024-01-30T11:38:26;6.10;99.90
20081;DHT22;10200;49.232;9.222;2024-01-30T11:40:55;6.20;99.90
20081;DHT22;10200;49.232;9.222;2024-01-30T11:43:22;6.20;99.90
20081;DHT22;10200;49.232;9.222;2024-01-30T11:45:48;6.20;99.90
20081;DHT22;10200;49.232;9.222;2024-01-30T11:48:13;6.30;99.90
20081;DHT22;10200;49.232;9.222;2024-01-30T11:50:39;6.30;99.90
20081;DHT22;10200;49.232;9.222;2024-01-30T11:53:10;6.40;99.90
20081;DHT22;10200;49.232;9.222;2024-01-30T11:55:35;6.40;99.90
20081;DHT22;10200;49.232;9.222;2024-01-30T11:58:03;6.40;99.90
20081;DHT22;10200;49.232;9.222;2024-01-30T12:00:29;6.50;99.90
20081;DHT22;10200;49.232;9.222;2024-01-30T12:02:56;6.50;99.90
20081;DHT22;10200;49.232;9.222;2024-01-30T12:05:23;6.50;99.90
20081;DHT22;10200;49.232;9.222;2024-01-30T12:07:48;6.50;99.90
20081;DHT22;10200;49.232;9.222;2024-01-30T12:10:14;6.60;99.90
20081;DHT22;10200;49.232;9.222;2024-01-30T12:12:46;6.60;99.90
20081;DHT22;10200;49.232;9.222;2024-01-30T12:15:13;6.60;99.90
20081;DHT22;10200;49.232;9.222;2024-01-30T12:17:39;6.60;99.90
20081;DHT22;10200;49.232;9.222;2024-01-30T12:20:08;6.60;99.90
20081;DHT22;10200;49.232;9.222;2024-01-30T12:22:38;6.60;99.90
20081;DHT22;10200;49.232;9.222;2024-01-30T12:25:14;6.60;99.90
20081;DHT22;10200;49.232;9.222;2024-01-30T12:27:43;6.70;99.90
20081;DHT22;10200;49.232;9.222;2024-01-30T12:30:10;6.80;99.90
20081;DHT22;10200;49.232;9.222;2024-01-30T12:32:46;6.80;99.90
20081;DHT22;10200;49.232;9.222;2024-01-30T12:35:18;6.80;99.90
20081;DHT22;10200;49.232;9.222;2024-01-30T12:37:45;6.90;99.90
20081;DHT22;10200;49.232;9.222;2024-01-30T12:40:11;6.90;99.90
20081;DHT22;10200;49.232;9.222;2024-01-30T12:42:40;7.00;99.90
20081;DHT22;10200;49.232;9.222;2024-01-30T12:45:07;7.00;99.90
20081;DHT22;10200;49.232;9.222;2024-01-30T12:47:33;7.00;99.90
20081;DHT22;10200;49.232;9.222;2024-01-30T12:49:59;7.00;99.90
20081;DHT22;10200;49.232;9.222;2024-01-30T12:52:24;7.10;99.90
20081;DHT22;10200;49.232;9.222;2024-01-30T12:54:51;7.10;99.90
20081;DHT22;10200;49.232;9.222;2024-01-30T12:57:17;7.10;99.90
20081;DHT22;10200;49.232;9.222;2024-01-30T12:59:44;7.10;99.90
20081;DHT22;10200;49.232;9.222;2024-01-30T13:02:10;7.20;99.90
20081;DHT22;10200;49.232;9.222;2024-01-30T13:04:36;7.10;99.90
20081;DHT22;10200;49.232;9.222;2024-01-30T13:07:02;7.20;99.90
20081;DHT22;10200;49.232;9.222;2024-01-30T13:09:29;7.20;99.90
20081;DHT22;10200;49.232;9.222;2024-01-30T13:11:55;7.10;99.90
20081;DHT22;10200;49.232;9.222;2024-01-30T13:14:21;7.10;99.90
20081;DHT22;10200;49.232;9.222;2024-01-30T13:16:47;7.10;99.90
20081;DHT22;10200;49.232;9.222;2024-01-30T13:19:12;7.10;99.90
20081;DHT22;10200;49.232;9.222;2024-01-30T13:21:38;7.10;99.90
20081;DHT22;10200;49.232;9.222;2024-01-30T13:24:04;7.10;99.90
20081;DHT22;10200;49.232;9.222;2024-01-30T13:26:32;7.20;99.90
20081;DHT22;10200;49.232;9.222;2024-01-30T13:28:58;7.20;99.90
20081;DHT22;10200;49.232;9.222;2024-01-30T13:31:23;7.20;99.90
20081;DHT22;10200;49.232;9.222;2024-01-30T13:33:49;7.20;99.90
20081;DHT22;10200;49.232;9.222;2024-01-30T13:36:15;7.30;99.90
20081;DHT22;10200;49.232;9.222;2024-01-30T13:38:40;7.30;99.90
20081;DHT22;10200;49.232;9.222;2024-01-30T13:41:06;7.30;99.90
20081;DHT22;10200;49.232;9.222;2024-01-30T13:43:32;7.30;99.90
20081;DHT22;10200;49.232;9.222;2024-01-30T13:45:58;7.40;99.90
20081;DHT22;10200;49.232;9.222;2024-01-30T13:48:24;7.40;99.90
20081;DHT22;10200;49.232;9.222;2024-01-30T13:50:49;7.40;99.90
20081;DHT22;10200;49.232;9.222;2024-01-30T13:53:15;7.40;99.90
20081;DHT22;10200;49.232;9.222;2024-01-30T13:55:41;7.40;99.90
20081;DHT22;10200;49.232;9.222;2024-01-30T13:58:06;7.50;99.90
20081;DHT22;10200;49.232;9.222;2024-01-30T14:00:33;7.50;99.90
20081;DHT22;10200;49.232;9.222;2024-01-30T14:02:59;7.50;99.90
20081;DHT22;10200;49.232;9.222;2024-01-30T14:05:25;7.60;99.90
20081;DHT22;10200;49.232;9.222;2024-01-30T14:07:53;7.60;99.90
20081;DHT22;10200;49.232;9.222;2024-01-30T14:10:18;7.60;99.90
20081;DHT22;10200;49.232;9.222;2024-01-30T14:12:44;7.70;99.90
20081;DHT22;10200;49.232;9.222;2024-01-30T14:15:10;7.60;99.90
20081;DHT22;10200;49.232;9.222;2024-01-30T14:17:38;7.60;99.90
20081;DHT22;10200;49.232;9.222;2024-01-30T14:20:03;7.60;99.90
20081;DHT22;10200;49.232;9.222;2024-01-30T14:22:33;7.60;99.90
20081;DHT22;10200;49.232;9.222;2024-01-30T14:25:02;7.60;99.90
20081;DHT22;10200;49.232;9.222;2024-01-30T14:27:31;7.60;99.90
20081;DHT22;10200;49.232;9.222;2024-01-30T14:29:57;7.60;99.90
20081;DHT22;10200;49.232;9.222;2024-01-30T14:32:23;7.60;99.90
20081;DHT22;10200;49.232;9.222;2024-01-30T14:34:50;7.50;99.90
20081;DHT22;10200;49.232;9.222;2024-01-30T14:37:16;7.50;99.90
20081;DHT22;10200;49.232;9.222;2024-01-30T14:39:42;7.50;99.90
20081;DHT22;10200;49.232;9.222;2024-01-30T14:42:07;7.50;99.90
20081;DHT22;10200;49.232;9.222;2024-01-30T14:44:33;7.40;99.90
20081;DHT22;10200;49.232;9.222;2024-01-30T14:46:59;7.50;99.90
20081;DHT22;10200;49.232;9.222;2024-01-30T14:49:25;7.40;99.90
20081;DHT22;10200;49.232;9.222;2024-01-30T14:51:51;7.40;99.90
20081;DHT22;10200;49.232;9.222;2024-01-30T14:54:16;7.40;99.90
20081;DHT22;10200;49.232;9.222;2024-01-30T14:56:42;7.40;99.90
20081;DHT22;10200;49.232;9.222;2024-01-30T14:59:08;7.40;99.90
20081;DHT22;10200;49.232;9.222;2024-01-30T15:01:33;7.40;99.90
20081;DHT22;10200;49.232;9.222;2024-01-30T15:03:59;7.40;99.90
20081;DHT22;10200;49.232;9.222;2024-01-30T15:06:24;7.40;99.90
20081;DHT22;10200;49.232;9.222;2024-01-30T15:08:53;7.40;99.90
20081;DHT22;10200;49.232;9.222;2024-01-30T15:11:19;7.30;99.90
20081;DHT22;10200;49.232;9.222;2024-01-30T15:13:44;7.30;99.90
20081;DHT22;10200;49.232;9.222;2024-01-30T15:16:10;7.30;99.90
20081;DHT22;10200;49.232;9.222;2024-01-30T15:18:36;7.30;99.90
20081;DHT22;10200;49.232;9.222;2024-01-30T15:21:01;7.30;99.90
20081;DHT22;10200;49.232;9.222;2024-01-30T15:23:27;7.30;99.90
20081;DHT22;10200;49.232;9.222;2024-01-30T15:25:53;7.30;99.90
20081;DHT22;10200;49.232;9.222;2024-01-30T15:28:18;7.20;99.90
20081;DHT22;10200;49.232;9.222;2024-01-30T15:30:44;7.20;99.90
20081;DHT22;10200;49.232;9.222;2024-01-30T15:33:10;7.20;99.90
20081;DHT22;10200;49.232;9.222;2024-01-30T15:35:36;7.20;99.90
20081;DHT22;10200;49.232;9.222;2024-01-30T15:38:04;7.20;99.90